Farina, Illinois
Current Conditions -  °F | °C
As of 11:55 AM on Friday 24 Oct 2014 (Local Time) from KSLO Reporting Station
Broken Clouds Broken Clouds  
Wind Chill: 65°   Ceiling: 2100
Heat Index: 65°   Visibility: 10mi
Dew Point: 57°   Wind: 3mph
Humidity: 75%   Direction: 260°W
Pressure: 30.12"   Gusts: NA
Location:  38.83°N, 88.77°W
Report Text: KSLO 241655Z AUTO 26003KT 10SM BKN021 BKN036 18/14 A3012 RMK AO2 T01830139
Loading
Personal Weather Stations






























Interactive Weather Map
Tropical Storm Tracking
New forecast layout! Learn more

10-Day Weather Forecast

Advertisements
Track Severe Weather on mobile